UAUU

Kostanay West Airport

Airport
ICAO code
UAUU
IATA Code
KSN
Summary
ICAO Region
APAC
ICAO Territory
Location

Kostanay,

Serving
Kostanay
Elevation
595 ft
Coordinates
53° 12' 25" N , 63° 33' 1" E
Metar
UAUU 020600Z 19004MPS 160V220 CAVOK 35/07 Q1015 NOSIG RMK QFE745/0994

Description

Kostanay Airport is an airport located 2 km southwest of Kostanay, Kazakhstan.

Runways

Designator Length Width Surface Rops
15/33 2484 48 ASP No/No

Airport map

Aerial View

SKYbrary Partners:

Safety knowledge contributed by: